createdAt,value
2022-08-19T00:01:53.265Z,5.70
2022-08-19T00:04:23.643Z,6.20
2022-08-19T00:06:51.036Z,6.22
2022-08-19T00:09:20.294Z,5.40
2022-08-19T00:11:47.982Z,5.80
2022-08-19T00:14:17.013Z,5.38
2022-08-19T00:16:46.743Z,5.20
2022-08-19T00:19:14.530Z,5.18
2022-08-19T00:21:41.823Z,5.60
2022-08-19T00:24:11.611Z,5.03
2022-08-19T00:26:39.008Z,5.00
2022-08-19T00:29:07.869Z,5.43
2022-08-19T00:31:35.155Z,5.00
2022-08-19T00:34:02.532Z,5.97
2022-08-19T00:36:30.087Z,5.78
2022-08-19T00:38:57.359Z,5.60
2022-08-19T00:41:27.540Z,5.65
2022-08-19T00:44:13.751Z,5.25
2022-08-19T00:46:44.985Z,5.30
2022-08-19T00:49:26.008Z,5.25
2022-08-19T00:51:57.809Z,5.30
2022-08-19T00:54:29.139Z,6.07
2022-08-19T00:57:05.377Z,5.18
2022-08-19T00:59:56.502Z,5.33
2022-08-19T01:02:19.859Z,5.45
2022-08-19T01:04:55.623Z,5.53
2022-08-19T01:07:23.002Z,5.45
2022-08-19T01:09:50.967Z,6.15
2022-08-19T01:12:19.251Z,5.80
2022-08-19T01:14:48.814Z,5.95
2022-08-19T01:17:16.980Z,6.10
2022-08-19T01:19:48.266Z,5.78
2022-08-19T01:22:30.142Z,5.90
2022-08-19T01:25:03.557Z,5.50
2022-08-19T01:27:44.901Z,6.32
2022-08-19T01:30:18.993Z,5.75
2022-08-19T01:32:46.165Z,6.22
2022-08-19T01:35:14.025Z,7.07
2022-08-19T01:37:50.772Z,6.40
2022-08-19T01:40:21.195Z,6.13
2022-08-19T01:42:50.190Z,5.50
2022-08-19T01:45:18.389Z,5.85
2022-08-19T01:47:52.774Z,5.53
2022-08-19T01:50:29.181Z,6.17
2022-08-19T01:53:02.376Z,5.90
2022-08-19T01:55:40.979Z,5.65
2022-08-19T01:58:16.034Z,5.68
2022-08-19T02:00:43.790Z,5.70
2022-08-19T02:03:12.521Z,5.60
2022-08-19T02:05:42.999Z,5.70
2022-08-19T02:08:11.699Z,5.88
2022-08-19T02:10:42.006Z,5.95
2022-08-19T02:13:09.397Z,5.50
2022-08-19T02:15:56.417Z,5.57
2022-08-19T02:18:28.093Z,6.63
2022-08-19T02:20:56.344Z,6.75
2022-08-19T02:23:23.425Z,7.03
2022-08-19T02:25:52.237Z,6.30
2022-08-19T02:28:19.315Z,6.88
2022-08-19T02:30:46.812Z,6.45
2022-08-19T02:33:13.906Z,5.97
2022-08-19T02:35:45.416Z,6.45
2022-08-19T02:38:27.537Z,6.45
2022-08-19T02:40:57.686Z,6.50
2022-08-19T02:43:25.708Z,6.15
2022-08-19T02:45:53.147Z,5.95
2022-08-19T02:48:22.300Z,7.65
2022-08-19T02:50:56.380Z,6.22
2022-08-19T02:53:26.916Z,5.47
2022-08-19T02:55:54.365Z,6.45
2022-08-19T02:58:22.860Z,6.70
2022-08-19T03:00:53.824Z,7.22
2022-08-19T03:03:21.180Z,6.57
2022-08-19T03:05:56.912Z,7.17
2022-08-19T03:08:26.912Z,6.70
2022-08-19T03:10:54.956Z,6.30
2022-08-19T03:13:22.538Z,6.65
2022-08-19T03:15:49.718Z,6.25
2022-08-19T03:18:17.937Z,6.80
2022-08-19T03:20:48.233Z,6.82
2022-08-19T03:23:16.589Z,6.78
2022-08-19T03:25:47.678Z,7.43
2022-08-19T03:28:29.882Z,6.78
2022-08-19T03:31:41.843Z,7.87
2022-08-19T03:33:56.916Z,7.15
2022-08-19T03:36:27.100Z,6.63
2022-08-19T03:38:59.607Z,6.97
2022-08-19T03:41:45.319Z,7.03
2022-08-19T03:44:17.001Z,7.33
2022-08-19T03:46:47.621Z,6.60
2022-08-19T03:49:14.952Z,6.43
2022-08-19T03:51:43.455Z,6.60
2022-08-19T03:54:14.324Z,7.10
2022-08-19T03:56:44.294Z,6.80
2022-08-19T03:59:16.649Z,6.70
2022-08-19T04:01:44.141Z,7.10
2022-08-19T04:04:11.336Z,6.53
2022-08-19T04:06:40.088Z,6.85
2022-08-19T04:09:12.352Z,7.03
2022-08-19T04:11:46.030Z,6.50
2022-08-19T04:14:17.822Z,7.07
2022-08-19T04:16:45.944Z,6.95
2022-08-19T04:19:14.173Z,7.10
2022-08-19T04:21:43.617Z,7.23
2022-08-19T04:24:11.615Z,6.43
2022-08-19T04:26:40.190Z,6.68
2022-08-19T04:29:17.022Z,6.20
2022-08-19T04:31:46.231Z,7.00
2022-08-19T04:34:16.188Z,7.27
2022-08-19T04:36:45.991Z,6.93
2022-08-19T04:39:16.949Z,7.13
2022-08-19T04:42:03.854Z,7.93
2022-08-19T04:44:35.290Z,7.85
2022-08-19T04:47:11.273Z,7.67
2022-08-19T04:49:38.706Z,7.13
2022-08-19T04:52:05.885Z,7.10
2022-08-19T04:54:38.316Z,8.85
2022-08-19T04:57:11.139Z,8.68
2022-08-19T04:59:39.967Z,6.93
2022-08-19T05:02:09.695Z,8.07
2022-08-19T05:04:40.346Z,7.90
2022-08-19T05:07:09.226Z,8.02
2022-08-19T05:09:57.798Z,7.07
2022-08-19T05:12:28.733Z,7.40
2022-08-19T05:14:58.340Z,7.55
2022-08-19T05:17:29.035Z,7.38
2022-08-19T05:20:16.879Z,8.27
2022-08-19T05:22:46.313Z,7.90
2022-08-19T05:25:16.689Z,7.50
2022-08-19T05:27:43.736Z,6.97
2022-08-19T05:30:12.392Z,6.60
2022-08-19T05:32:40.904Z,7.10
2022-08-19T05:35:08.460Z,7.50
2022-08-19T05:37:35.532Z,6.87
2022-08-19T05:40:10.668Z,6.95
2022-08-19T05:42:38.608Z,7.35
2022-08-19T05:45:06.147Z,7.38
2022-08-19T05:47:33.284Z,7.07
2022-08-19T05:50:00.472Z,7.03
2022-08-19T05:52:29.188Z,7.18
2022-08-19T05:54:57.503Z,7.68
2022-08-19T05:57:31.649Z,7.47
2022-08-19T06:00:01.286Z,6.95
2022-08-19T06:02:32.015Z,7.23
2022-08-19T06:04:59.449Z,8.02
2022-08-19T06:07:26.636Z,7.40
2022-08-19T06:10:00.252Z,7.38
2022-08-19T06:12:35.672Z,7.20
2022-08-19T06:15:09.800Z,7.70
2022-08-19T06:17:37.260Z,7.15
2022-08-19T06:20:13.055Z,6.57
2022-08-19T06:22:45.583Z,7.07
2022-08-19T06:25:14.925Z,6.45
2022-08-19T06:27:58.956Z,6.63
2022-08-19T06:30:29.784Z,6.18
2022-08-19T06:32:56.931Z,6.18
2022-08-19T06:35:24.076Z,6.38
2022-08-19T06:37:51.078Z,7.13
2022-08-19T06:40:18.255Z,6.27
2022-08-19T06:42:54.153Z,6.40
2022-08-19T06:45:34.577Z,5.80
2022-08-19T06:48:03.487Z,6.47
2022-08-19T06:50:30.637Z,6.07
2022-08-19T06:52:57.650Z,6.63
2022-08-19T06:55:30.378Z,6.60
2022-08-19T06:58:04.878Z,6.75
2022-08-19T07:03:07.789Z,6.93
2022-08-19T07:05:45.773Z,6.37
2022-08-19T07:08:14.690Z,6.82
2022-08-19T07:10:49.301Z,7.05
2022-08-19T07:13:16.434Z,7.72
2022-08-19T07:15:43.576Z,6.97
2022-08-19T07:18:11.863Z,8.00
2022-08-19T07:20:40.449Z,7.35
2022-08-19T07:23:09.918Z,7.65
2022-08-19T07:25:53.157Z,7.47
2022-08-19T07:28:24.464Z,7.80
2022-08-19T07:30:53.080Z,6.93
2022-08-19T07:33:23.086Z,6.60
2022-08-19T07:35:50.942Z,6.38
2022-08-19T07:38:18.251Z,7.07
2022-08-19T07:40:47.285Z,6.38
2022-08-19T07:43:17.080Z,5.90
2022-08-19T07:45:48.256Z,6.18
2022-08-19T07:48:17.520Z,7.07
2022-08-19T07:51:11.335Z,6.55
2022-08-19T07:53:45.963Z,7.32
2022-08-19T07:56:15.136Z,6.93
2022-08-19T07:58:44.993Z,6.78
2022-08-19T08:01:21.886Z,6.22
2022-08-19T08:04:08.535Z,6.50
2022-08-19T08:06:54.245Z,6.40
2022-08-19T08:09:39.378Z,6.63
2022-08-19T08:12:33.002Z,6.93
2022-08-19T08:15:02.994Z,6.97
2022-08-19T08:17:48.664Z,6.85
2022-08-19T08:20:18.106Z,7.18
2022-08-19T08:23:07.638Z,6.70
2022-08-19T08:25:36.529Z,6.43
2022-08-19T08:28:04.789Z,6.22
2022-08-19T08:30:33.961Z,6.45
2022-08-19T08:33:02.742Z,6.10
2022-08-19T08:35:30.032Z,6.60
2022-08-19T08:37:58.613Z,5.82
2022-08-19T08:40:31.485Z,5.78
2022-08-19T08:43:26.724Z,5.40
2022-08-19T08:46:01.619Z,5.82
2022-08-19T08:48:54.590Z,6.13
2022-08-19T08:51:29.912Z,5.53
2022-08-19T08:54:10.752Z,5.47
2022-08-19T08:56:45.372Z,5.15
2022-08-19T08:59:22.924Z,5.78
2022-08-19T09:01:50.879Z,5.20
2022-08-19T09:04:21.140Z,4.88
2022-08-19T09:06:55.983Z,5.13
2022-08-19T09:09:35.919Z,5.22
2022-08-19T09:12:16.447Z,6.50
2022-08-19T09:14:55.134Z,5.33
2022-08-19T09:17:28.585Z,5.57
2022-08-19T09:20:18.111Z,5.93
2022-08-19T09:22:45.457Z,6.07
2022-08-19T09:25:16.643Z,5.93
2022-08-19T09:27:44.217Z,5.53
2022-08-19T09:30:22.098Z,5.78
2022-08-19T09:32:53.916Z,5.32
2022-08-19T09:35:25.371Z,5.85
2022-08-19T09:37:59.668Z,5.68
2022-08-19T09:40:30.330Z,4.63
2022-08-19T09:43:01.668Z,5.32
2022-08-19T09:45:29.089Z,5.63
2022-08-19T09:47:57.777Z,5.38
2022-08-19T09:50:25.473Z,4.90
2022-08-19T09:52:55.766Z,4.67
2022-08-19T09:55:31.208Z,5.35
2022-08-19T09:58:03.307Z,5.15
2022-08-19T10:00:32.026Z,5.05
2022-08-19T10:02:59.494Z,4.80
2022-08-19T10:05:45.281Z,5.30
2022-08-19T10:08:28.883Z,4.25
2022-08-19T10:10:57.316Z,4.82
2022-08-19T10:13:28.776Z,4.00
2022-08-19T10:15:58.695Z,4.38
2022-08-19T10:18:26.552Z,3.90
2022-08-19T10:20:54.729Z,4.13
2022-08-19T10:23:22.659Z,4.53
2022-08-19T10:25:50.883Z,3.88
2022-08-19T10:28:19.461Z,4.47
2022-08-19T10:30:56.463Z,4.60
2022-08-19T10:33:52.948Z,5.07
2022-08-19T10:36:16.225Z,5.13
2022-08-19T10:38:52.284Z,4.93
2022-08-19T10:41:25.286Z,4.68
2022-08-19T10:43:55.425Z,4.20
2022-08-19T10:46:26.902Z,4.55
2022-08-19T10:48:55.546Z,4.35
2022-08-19T10:51:48.082Z,4.00
2022-08-19T10:54:16.537Z,4.35
2022-08-19T10:56:52.683Z,4.63
2022-08-19T10:59:35.759Z,4.65
2022-08-19T11:02:05.444Z,4.22
2022-08-19T11:04:33.635Z,3.90
2022-08-19T11:07:00.724Z,3.60
2022-08-19T11:09:34.336Z,3.40
2022-08-19T11:12:03.053Z,3.90
2022-08-19T11:14:34.493Z,4.53
2022-08-19T11:17:02.351Z,3.50
2022-08-19T11:19:29.441Z,3.70
2022-08-19T11:21:56.582Z,4.20
2022-08-19T11:24:26.940Z,3.47
2022-08-19T11:27:01.171Z,4.10
2022-08-19T11:29:28.970Z,3.88
2022-08-19T11:31:56.289Z,3.80
2022-08-19T11:34:28.581Z,4.23
2022-08-19T11:36:59.801Z,3.78
2022-08-19T11:39:29.143Z,3.40
2022-08-19T11:41:56.470Z,3.88
2022-08-19T11:44:23.544Z,4.32
2022-08-19T11:46:50.662Z,3.90
2022-08-19T11:49:22.674Z,4.32
2022-08-19T11:51:51.750Z,3.75
2022-08-19T11:54:21.044Z,3.90
2022-08-19T11:56:50.162Z,4.07
2022-08-19T11:59:17.376Z,3.67
2022-08-19T12:01:44.640Z,3.92
2022-08-19T12:04:12.293Z,3.90
2022-08-19T12:06:40.929Z,3.78
2022-08-19T12:09:10.526Z,4.90
2022-08-19T12:11:39.341Z,4.47
2022-08-19T12:14:07.995Z,4.57
2022-08-19T12:16:37.746Z,4.50
2022-08-19T12:19:06.903Z,4.75
2022-08-19T12:21:36.009Z,4.75
2022-08-19T12:24:04.710Z,4.30
2022-08-19T12:26:32.555Z,4.45
2022-08-19T12:29:00.665Z,4.55
2022-08-19T12:31:29.460Z,4.60
2022-08-19T12:33:56.833Z,4.30
2022-08-19T12:36:26.644Z,4.50
2022-08-19T12:38:53.981Z,4.15
2022-08-19T12:41:23.270Z,4.47
2022-08-19T12:43:53.541Z,4.00
2022-08-19T12:46:23.032Z,4.72
2022-08-19T12:48:56.214Z,4.70
2022-08-19T12:51:26.397Z,5.20
2022-08-19T12:53:53.539Z,4.57
2022-08-19T12:56:23.545Z,5.25
2022-08-19T12:58:53.306Z,5.05
2022-08-19T13:01:22.807Z,4.00
2022-08-19T13:03:51.396Z,4.22
2022-08-19T13:06:20.333Z,4.20
2022-08-19T13:08:47.759Z,4.53
2022-08-19T13:11:20.199Z,4.68
2022-08-19T13:13:50.746Z,4.70
2022-08-19T13:16:18.830Z,5.50
2022-08-19T13:18:53.024Z,7.43
2022-08-19T13:21:24.016Z,6.75
2022-08-19T13:23:52.109Z,6.80
2022-08-19T13:26:19.792Z,6.87
2022-08-19T13:29:05.573Z,7.03
2022-08-19T13:31:54.105Z,5.50
2022-08-19T13:34:31.219Z,8.13
2022-08-19T13:36:59.144Z,9.38
2022-08-19T13:39:26.414Z,9.30
2022-08-19T13:41:53.798Z,6.60
2022-08-19T13:44:21.211Z,5.55
2022-08-19T13:46:50.096Z,4.53
2022-08-19T13:49:21.712Z,4.70
2022-08-19T13:51:48.938Z,5.33
2022-08-19T13:54:23.344Z,5.22
2022-08-19T13:56:50.381Z,5.22
2022-08-19T13:59:18.191Z,6.35
2022-08-19T14:01:47.568Z,6.30
2022-08-19T14:04:14.552Z,13.20
2022-08-19T14:06:41.629Z,13.93
2022-08-19T14:09:08.844Z,13.23
2022-08-19T14:11:35.803Z,12.10
2022-08-19T14:14:02.774Z,11.13
2022-08-19T14:16:31.488Z,12.27
2022-08-19T14:19:00.776Z,11.60
2022-08-19T14:21:27.927Z,10.52
2022-08-19T14:23:57.469Z,9.43
2022-08-19T14:26:24.894Z,11.43
2022-08-19T14:28:55.543Z,12.50
2022-08-19T14:31:27.850Z,12.20
2022-08-19T14:33:58.394Z,12.05
2022-08-19T14:36:25.693Z,12.93
2022-08-19T14:38:52.896Z,17.88
2022-08-19T14:41:26.983Z,19.13
2022-08-19T14:43:55.132Z,21.08
2022-08-19T14:46:26.240Z,20.80
2022-08-19T14:48:57.599Z,20.35
2022-08-19T14:51:27.844Z,25.52
2022-08-19T14:53:56.441Z,25.70
2022-08-19T14:56:27.667Z,23.35
2022-08-19T14:58:55.649Z,22.85
2022-08-19T15:01:24.253Z,21.02
2022-08-19T15:03:54.073Z,20.23
2022-08-19T15:06:22.673Z,19.60
2022-08-19T15:08:52.882Z,19.67
2022-08-19T15:11:23.722Z,19.40
2022-08-19T15:13:51.443Z,17.20
2022-08-19T15:16:19.456Z,15.85
2022-08-19T15:18:50.775Z,14.50
2022-08-19T15:21:26.797Z,13.35
2022-08-19T15:23:56.560Z,13.60
2022-08-19T15:26:28.639Z,12.30
2022-08-19T15:28:58.187Z,10.43
2022-08-19T15:31:28.759Z,10.47
2022-08-19T15:33:58.931Z,8.93
2022-08-19T15:36:27.286Z,8.55
2022-08-19T15:38:57.213Z,9.50
2022-08-19T15:41:30.868Z,8.68
2022-08-19T15:44:10.290Z,9.00
2022-08-19T15:46:39.522Z,8.80
2022-08-19T15:49:07.896Z,7.82
2022-08-19T15:51:39.342Z,8.82
2022-08-19T15:54:09.560Z,8.32
2022-08-19T15:56:57.970Z,9.00
2022-08-19T15:59:47.381Z,8.27
2022-08-19T16:02:34.980Z,6.78
2022-08-19T16:05:26.582Z,6.78
2022-08-19T16:08:01.467Z,6.65
2022-08-19T16:10:31.165Z,6.83
2022-08-19T16:13:03.179Z,5.78
2022-08-19T16:15:46.259Z,5.00
2022-08-19T16:18:15.932Z,5.30
2022-08-19T16:20:44.587Z,5.05
2022-08-19T16:23:11.843Z,4.87
2022-08-19T16:25:39.624Z,4.63
2022-08-19T16:28:10.009Z,5.40
2022-08-19T16:30:48.501Z,5.50
2022-08-19T16:33:40.805Z,4.57
2022-08-19T16:36:26.649Z,4.97
2022-08-19T16:38:55.578Z,4.20
2022-08-19T16:41:28.276Z,4.70
2022-08-19T16:43:55.708Z,4.97
2022-08-19T16:46:26.846Z,4.78
2022-08-19T16:48:54.738Z,4.30
2022-08-19T16:51:23.020Z,4.68
2022-08-19T16:53:52.653Z,4.90
2022-08-19T16:56:21.360Z,5.13
2022-08-19T16:58:50.915Z,5.10
2022-08-19T17:01:19.513Z,4.50
2022-08-19T17:03:48.734Z,4.40
2022-08-19T17:06:20.891Z,5.22
2022-08-19T17:08:50.936Z,4.45
2022-08-19T17:11:19.857Z,4.80
2022-08-19T17:13:51.098Z,4.67
2022-08-19T17:16:22.266Z,4.57
2022-08-19T17:18:53.048Z,4.82
2022-08-19T17:21:22.666Z,4.95
2022-08-19T17:23:49.783Z,4.50
2022-08-19T17:26:18.612Z,4.30
2022-08-19T17:28:51.997Z,4.20
2022-08-19T17:31:21.639Z,4.18
2022-08-19T17:33:52.213Z,4.35
2022-08-19T17:36:27.290Z,4.82
2022-08-19T17:38:57.378Z,5.13
2022-08-19T17:41:25.677Z,5.25
2022-08-19T17:43:53.394Z,4.60
2022-08-19T17:46:20.740Z,4.43
2022-08-19T17:48:52.754Z,4.40
2022-08-19T17:51:42.385Z,5.27
2022-08-19T17:54:16.242Z,4.47
2022-08-19T17:56:48.012Z,4.28
2022-08-19T17:59:20.165Z,5.22
2022-08-19T18:01:58.117Z,5.05
2022-08-19T18:04:27.787Z,5.43
2022-08-19T18:06:56.089Z,4.43
2022-08-19T18:09:38.618Z,4.35
2022-08-19T18:12:23.507Z,4.78
2022-08-19T18:14:57.765Z,4.40
2022-08-19T18:17:28.332Z,4.93
2022-08-19T18:19:56.068Z,3.97
2022-08-19T18:22:23.043Z,4.25
2022-08-19T18:24:50.420Z,4.03
2022-08-19T18:27:17.544Z,4.10
2022-08-19T18:29:45.172Z,4.20
2022-08-19T18:32:13.054Z,3.83
2022-08-19T18:34:42.905Z,3.97
2022-08-19T18:37:10.843Z,4.22
2022-08-19T18:39:56.742Z,4.07
2022-08-19T18:42:46.230Z,3.57
2022-08-19T18:45:31.830Z,4.93
2022-08-19T18:48:26.652Z,4.07
2022-08-19T18:50:57.695Z,4.75
2022-08-19T18:53:26.281Z,4.25
2022-08-19T18:55:55.540Z,4.23
2022-08-19T18:58:34.474Z,4.72
2022-08-19T19:01:25.204Z,4.25
2022-08-19T19:03:54.323Z,4.30
2022-08-19T19:06:28.824Z,4.20
2022-08-19T19:08:56.988Z,3.90
2022-08-19T19:11:30.525Z,4.30
2022-08-19T19:13:57.725Z,4.22
2022-08-19T19:16:28.795Z,4.20
2022-08-19T19:18:59.656Z,3.50
2022-08-19T19:21:26.971Z,3.30
2022-08-19T19:23:55.648Z,4.10
2022-08-19T19:26:23.528Z,4.00
2022-08-19T19:28:51.573Z,3.58
2022-08-19T19:31:26.857Z,3.95
2022-08-19T19:33:55.869Z,3.60
2022-08-19T19:36:25.549Z,4.50
2022-08-19T19:38:53.165Z,4.13
2022-08-19T19:41:26.375Z,3.65
2022-08-19T19:44:29.355Z,3.70
2022-08-19T19:46:45.970Z,3.40
2022-08-19T19:49:14.106Z,3.30
2022-08-19T19:51:43.358Z,3.67
2022-08-19T19:54:15.698Z,3.67
2022-08-19T19:56:48.659Z,3.42
2022-08-19T19:59:16.280Z,3.43
2022-08-19T20:01:46.878Z,3.53
2022-08-19T20:04:15.460Z,3.33
2022-08-19T20:06:42.557Z,3.55
2022-08-19T20:09:10.861Z,3.40
2022-08-19T20:11:42.044Z,3.23
2022-08-19T20:14:12.716Z,3.13
2022-08-19T20:16:44.070Z,3.70
2022-08-19T20:19:13.493Z,4.18
2022-08-19T20:21:43.784Z,3.40
2022-08-19T20:24:14.053Z,3.10
2022-08-19T20:26:42.743Z,3.22
2022-08-19T20:29:38.340Z,3.30
2022-08-19T20:31:59.457Z,3.20
2022-08-19T20:34:27.539Z,3.58
2022-08-19T20:36:54.742Z,3.80
2022-08-19T20:39:21.823Z,3.60
2022-08-19T20:41:50.964Z,3.55
2022-08-19T20:44:18.063Z,3.08
2022-08-19T20:46:54.518Z,3.35
2022-08-19T20:49:27.470Z,3.97
2022-08-19T20:51:56.274Z,3.55
2022-08-19T20:54:26.224Z,3.22
2022-08-19T20:56:53.435Z,3.33
2022-08-19T20:59:21.819Z,3.75
2022-08-19T21:01:51.908Z,3.50
2022-08-19T21:04:21.382Z,3.42
2022-08-19T21:06:50.237Z,3.63
2022-08-19T21:09:17.433Z,3.30
2022-08-19T21:11:44.671Z,3.85
2022-08-19T21:14:12.959Z,3.50
2022-08-19T21:16:40.134Z,3.50
2022-08-19T21:19:07.503Z,3.70
2022-08-19T21:21:35.093Z,4.35
2022-08-19T21:24:02.210Z,4.00
2022-08-19T21:26:29.124Z,3.97
2022-08-19T21:28:56.354Z,3.85
2022-08-19T21:31:23.552Z,3.85
2022-08-19T21:33:50.520Z,4.00
2022-08-19T21:36:17.633Z,4.25
2022-08-19T21:38:44.658Z,4.23
2022-08-19T21:41:11.709Z,5.07
2022-08-19T21:43:39.231Z,4.40
2022-08-19T21:46:07.218Z,4.95
2022-08-19T21:48:34.225Z,4.70
2022-08-19T21:51:01.413Z,6.03
2022-08-19T21:53:31.470Z,4.88
2022-08-19T21:56:01.633Z,8.48
2022-08-19T21:58:36.617Z,5.78
2022-08-19T22:01:06.461Z,9.00
2022-08-19T22:03:38.555Z,6.50
2022-08-19T22:06:06.848Z,6.28
2022-08-19T22:08:34.006Z,6.25
2022-08-19T22:11:02.959Z,6.50
2022-08-19T22:13:39.786Z,6.90
2022-08-19T22:16:09.995Z,6.77
2022-08-19T22:18:37.407Z,7.45
2022-08-19T22:21:12.318Z,8.40
2022-08-19T22:23:44.479Z,7.30
2022-08-19T22:26:12.849Z,7.40
2022-08-19T22:28:49.708Z,7.90
2022-08-19T22:31:24.642Z,7.35
2022-08-19T22:33:52.875Z,7.90
2022-08-19T22:36:20.609Z,8.32
2022-08-19T22:38:50.555Z,8.63
2022-08-19T22:41:17.662Z,9.13
2022-08-19T22:43:46.738Z,8.35
2022-08-19T22:46:17.333Z,8.95
2022-08-19T22:48:45.674Z,8.90
2022-08-19T22:51:31.278Z,8.02
2022-08-19T22:53:58.511Z,8.50
2022-08-19T22:56:26.082Z,8.63
2022-08-19T22:58:53.703Z,8.73
2022-08-19T23:01:27.460Z,8.48
2022-08-19T23:03:59.282Z,9.10
2022-08-19T23:06:31.214Z,9.60
2022-08-19T23:09:01.851Z,9.35
2022-08-19T23:11:31.494Z,8.40
2022-08-19T23:13:58.634Z,8.80
2022-08-19T23:16:25.597Z,9.20
2022-08-19T23:18:55.956Z,8.93
2022-08-19T23:21:26.740Z,10.50
2022-08-19T23:23:54.279Z,11.98
2022-08-19T23:26:23.092Z,11.48
2022-08-19T23:29:08.573Z,13.73
2022-08-19T23:31:38.266Z,13.50
2022-08-19T23:34:05.991Z,13.75
2022-08-19T23:36:35.396Z,14.68
2022-08-19T23:39:02.517Z,14.48
2022-08-19T23:41:29.583Z,16.27
2022-08-19T23:43:56.689Z,16.33
2022-08-19T23:46:28.543Z,16.10
2022-08-19T23:48:56.796Z,17.60
2022-08-19T23:51:24.796Z,17.80
2022-08-19T23:53:51.789Z,18.83
2022-08-19T23:56:21.734Z,19.70
2022-08-19T23:58:49.269Z,20.08
